sensor_id;sensor_type;location;lat;lon;timestamp;P1;durP1;ratioP1;P2;durP2;ratioP2
84589;SDS011;75075;48.816;8.740;2024-01-27T00:03:34;5.28;;;1.65;;
84589;SDS011;75075;48.816;8.740;2024-01-27T00:08:34;6.70;;;1.70;;
84589;SDS011;75075;48.816;8.740;2024-01-27T00:13:34;5.30;;;1.50;;
84589;SDS011;75075;48.816;8.740;2024-01-27T00:18:38;5.70;;;1.53;;
84589;SDS011;75075;48.816;8.740;2024-01-27T00:23:38;4.63;;;1.40;;
84589;SDS011;75075;48.816;8.740;2024-01-27T00:28:39;4.82;;;1.60;;
84589;SDS011;75075;48.816;8.740;2024-01-27T00:33:39;5.50;;;1.35;;
84589;SDS011;75075;48.816;8.740;2024-01-27T00:38:39;5.43;;;1.50;;
84589;SDS011;75075;48.816;8.740;2024-01-27T00:43:40;4.60;;;1.60;;
84589;SDS011;75075;48.816;8.740;2024-01-27T00:48:40;5.35;;;1.80;;
84589;SDS011;75075;48.816;8.740;2024-01-27T00:53:40;4.68;;;1.58;;
84589;SDS011;75075;48.816;8.740;2024-01-27T00:58:41;5.13;;;1.50;;
84589;SDS011;75075;48.816;8.740;2024-01-27T01:03:41;4.53;;;1.30;;
84589;SDS011;75075;48.816;8.740;2024-01-27T01:08:41;3.83;;;1.40;;
84589;SDS011;75075;48.816;8.740;2024-01-27T01:13:42;3.47;;;1.20;;
84589;SDS011;75075;48.816;8.740;2024-01-27T01:18:42;3.93;;;1.20;;
84589;SDS011;75075;48.816;8.740;2024-01-27T01:23:42;4.25;;;1.30;;
84589;SDS011;75075;48.816;8.740;2024-01-27T01:28:42;4.03;;;1.25;;
84589;SDS011;75075;48.816;8.740;2024-01-27T01:33:43;3.20;;;1.13;;
84589;SDS011;75075;48.816;8.740;2024-01-27T01:38:44;4.45;;;1.17;;
84589;SDS011;75075;48.816;8.740;2024-01-27T01:43:44;3.08;;;1.00;;
84589;SDS011;75075;48.816;8.740;2024-01-27T01:48:45;3.53;;;1.20;;
84589;SDS011;75075;48.816;8.740;2024-01-27T01:53:47;4.40;;;1.30;;
84589;SDS011;75075;48.816;8.740;2024-01-27T01:58:48;3.42;;;1.00;;
84589;SDS011;75075;48.816;8.740;2024-01-27T02:03:55;2.78;;;1.10;;
84589;SDS011;75075;48.816;8.740;2024-01-27T02:08:56;3.45;;;1.10;;
84589;SDS011;75075;48.816;8.740;2024-01-27T02:13:56;3.77;;;1.10;;
84589;SDS011;75075;48.816;8.740;2024-01-27T02:18:56;3.35;;;1.08;;
84589;SDS011;75075;48.816;8.740;2024-01-27T02:23:57;3.95;;;1.02;;
84589;SDS011;75075;48.816;8.740;2024-01-27T02:28:58;2.70;;;1.00;;
84589;SDS011;75075;48.816;8.740;2024-01-27T02:33:58;3.22;;;1.00;;
84589;SDS011;75075;48.816;8.740;2024-01-27T02:38:58;3.00;;;1.00;;
84589;SDS011;75075;48.816;8.740;2024-01-27T02:43:58;3.33;;;1.15;;
84589;SDS011;75075;48.816;8.740;2024-01-27T02:48:58;3.10;;;0.88;;
84589;SDS011;75075;48.816;8.740;2024-01-27T02:53:59;3.22;;;0.90;;
84589;SDS011;75075;48.816;8.740;2024-01-27T02:58:59;2.10;;;0.77;;
84589;SDS011;75075;48.816;8.740;2024-01-27T03:03:59;3.80;;;0.98;;
84589;SDS011;75075;48.816;8.740;2024-01-27T03:08:59;5.55;;;1.10;;
84589;SDS011;75075;48.816;8.740;2024-01-27T03:14:00;2.85;;;0.77;;
84589;SDS011;75075;48.816;8.740;2024-01-27T03:19:00;4.30;;;0.98;;
84589;SDS011;75075;48.816;8.740;2024-01-27T03:24:00;2.53;;;0.70;;
84589;SDS011;75075;48.816;8.740;2024-01-27T03:29:00;3.33;;;0.80;;
84589;SDS011;75075;48.816;8.740;2024-01-27T03:34:01;3.38;;;1.08;;
84589;SDS011;75075;48.816;8.740;2024-01-27T03:39:02;2.70;;;0.90;;
84589;SDS011;75075;48.816;8.740;2024-01-27T03:44:03;3.75;;;0.80;;
84589;SDS011;75075;48.816;8.740;2024-01-27T03:49:03;3.00;;;0.93;;
84589;SDS011;75075;48.816;8.740;2024-01-27T03:54:04;2.67;;;0.90;;
84589;SDS011;75075;48.816;8.740;2024-01-27T03:59:04;3.65;;;0.90;;
84589;SDS011;75075;48.816;8.740;2024-01-27T04:04:06;3.35;;;1.08;;
84589;SDS011;75075;48.816;8.740;2024-01-27T04:09:07;1.90;;;0.70;;
84589;SDS011;75075;48.816;8.740;2024-01-27T04:14:08;2.47;;;0.70;;
84589;SDS011;75075;48.816;8.740;2024-01-27T04:19:09;2.70;;;0.85;;
84589;SDS011;75075;48.816;8.740;2024-01-27T04:24:09;3.10;;;0.90;;
84589;SDS011;75075;48.816;8.740;2024-01-27T04:29:09;2.30;;;0.60;;
84589;SDS011;75075;48.816;8.740;2024-01-27T04:34:14;2.72;;;0.88;;
84589;SDS011;75075;48.816;8.740;2024-01-27T04:39:15;3.15;;;0.77;;
84589;SDS011;75075;48.816;8.740;2024-01-27T04:44:15;2.78;;;0.70;;
84589;SDS011;75075;48.816;8.740;2024-01-27T04:49:15;2.45;;;0.80;;
84589;SDS011;75075;48.816;8.740;2024-01-27T04:54:15;2.77;;;0.80;;
84589;SDS011;75075;48.816;8.740;2024-01-27T04:59:16;3.60;;;0.80;;
84589;SDS011;75075;48.816;8.740;2024-01-27T05:04:16;3.33;;;0.85;;
84589;SDS011;75075;48.816;8.740;2024-01-27T05:09:16;2.55;;;0.80;;
84589;SDS011;75075;48.816;8.740;2024-01-27T05:14:16;3.15;;;0.70;;
84589;SDS011;75075;48.816;8.740;2024-01-27T05:19:17;3.03;;;0.80;;
84589;SDS011;75075;48.816;8.740;2024-01-27T05:24:18;2.17;;;0.70;;
84589;SDS011;75075;48.816;8.740;2024-01-27T05:29:18;2.05;;;0.60;;
84589;SDS011;75075;48.816;8.740;2024-01-27T05:34:18;1.92;;;0.60;;
84589;SDS011;75075;48.816;8.740;2024-01-27T05:39:18;2.10;;;0.75;;
84589;SDS011;75075;48.816;8.740;2024-01-27T05:44:19;2.72;;;0.73;;
84589;SDS011;75075;48.816;8.740;2024-01-27T05:49:19;2.72;;;0.90;;
84589;SDS011;75075;48.816;8.740;2024-01-27T05:54:19;1.65;;;0.60;;
84589;SDS011;75075;48.816;8.740;2024-01-27T05:59:20;2.80;;;0.77;;
84589;SDS011;75075;48.816;8.740;2024-01-27T06:04:20;2.60;;;0.70;;
84589;SDS011;75075;48.816;8.740;2024-01-27T06:09:20;2.38;;;0.60;;
84589;SDS011;75075;48.816;8.740;2024-01-27T06:14:21;1.77;;;0.60;;
84589;SDS011;75075;48.816;8.740;2024-01-27T06:19:22;1.98;;;0.60;;
84589;SDS011;75075;48.816;8.740;2024-01-27T06:24:22;1.42;;;0.63;;
84589;SDS011;75075;48.816;8.740;2024-01-27T06:29:22;2.25;;;0.60;;
84589;SDS011;75075;48.816;8.740;2024-01-27T06:34:23;1.85;;;0.60;;
84589;SDS011;75075;48.816;8.740;2024-01-27T06:39:23;1.87;;;0.60;;
84589;SDS011;75075;48.816;8.740;2024-01-27T06:44:24;2.37;;;0.50;;
84589;SDS011;75075;48.816;8.740;2024-01-27T06:49:24;1.70;;;0.60;;
84589;SDS011;75075;48.816;8.740;2024-01-27T06:54:24;3.17;;;0.80;;
84589;SDS011;75075;48.816;8.740;2024-01-27T06:59:24;1.40;;;0.50;;
84589;SDS011;75075;48.816;8.740;2024-01-27T07:04:25;2.50;;;0.70;;
84589;SDS011;75075;48.816;8.740;2024-01-27T07:09:25;2.45;;;0.88;;
84589;SDS011;75075;48.816;8.740;2024-01-27T07:14:25;1.38;;;0.60;;
84589;SDS011;75075;48.816;8.740;2024-01-27T07:19:25;2.00;;;0.60;;
84589;SDS011;75075;48.816;8.740;2024-01-27T07:24:26;2.40;;;0.60;;
84589;SDS011;75075;48.816;8.740;2024-01-27T07:29:27;2.13;;;0.60;;
84589;SDS011;75075;48.816;8.740;2024-01-27T07:34:27;2.78;;;0.70;;
84589;SDS011;75075;48.816;8.740;2024-01-27T07:39:27;1.67;;;0.50;;
84589;SDS011;75075;48.816;8.740;2024-01-27T07:44:28;3.40;;;0.95;;
84589;SDS011;75075;48.816;8.740;2024-01-27T07:49:28;1.98;;;0.70;;
84589;SDS011;75075;48.816;8.740;2024-01-27T07:54:28;1.95;;;0.63;;
84589;SDS011;75075;48.816;8.740;2024-01-27T07:59:29;2.08;;;0.68;;
84589;SDS011;75075;48.816;8.740;2024-01-27T08:04:29;2.10;;;0.80;;
84589;SDS011;75075;48.816;8.740;2024-01-27T08:09:29;2.25;;;0.70;;
84589;SDS011;75075;48.816;8.740;2024-01-27T08:14:30;2.45;;;0.80;;
84589;SDS011;75075;48.816;8.740;2024-01-27T08:19:30;3.75;;;0.77;;
84589;SDS011;75075;48.816;8.740;2024-01-27T08:24:30;3.60;;;0.80;;
84589;SDS011;75075;48.816;8.740;2024-01-27T08:29:30;2.80;;;1.00;;
84589;SDS011;75075;48.816;8.740;2024-01-27T08:34:31;3.35;;;0.60;;
84589;SDS011;75075;48.816;8.740;2024-01-27T08:39:31;1.92;;;0.70;;
84589;SDS011;75075;48.816;8.740;2024-01-27T08:44:31;1.08;;;0.52;;
84589;SDS011;75075;48.816;8.740;2024-01-27T08:49:31;1.38;;;0.57;;
84589;SDS011;75075;48.816;8.740;2024-01-27T08:54:32;2.13;;;0.50;;
84589;SDS011;75075;48.816;8.740;2024-01-27T08:59:32;4.32;;;1.30;;
84589;SDS011;75075;48.816;8.740;2024-01-27T09:04:33;3.00;;;1.08;;
84589;SDS011;75075;48.816;8.740;2024-01-27T09:09:33;4.57;;;1.70;;
84589;SDS011;75075;48.816;8.740;2024-01-27T09:14:33;2.67;;;1.20;;
84589;SDS011;75075;48.816;8.740;2024-01-27T09:19:33;3.55;;;1.20;;
84589;SDS011;75075;48.816;8.740;2024-01-27T09:24:34;2.60;;;1.20;;
84589;SDS011;75075;48.816;8.740;2024-01-27T09:29:34;5.03;;;1.52;;
84589;SDS011;75075;48.816;8.740;2024-01-27T09:34:34;4.47;;;1.50;;
84589;SDS011;75075;48.816;8.740;2024-01-27T09:39:34;2.37;;;1.17;;
84589;SDS011;75075;48.816;8.740;2024-01-27T09:44:35;4.15;;;1.30;;
84589;SDS011;75075;48.816;8.740;2024-01-27T09:49:36;7.80;;;1.58;;
84589;SDS011;75075;48.816;8.740;2024-01-27T09:54:40;2.97;;;1.25;;
84589;SDS011;75075;48.816;8.740;2024-01-27T09:59:41;3.30;;;1.20;;
84589;SDS011;75075;48.816;8.740;2024-01-27T10:04:48;4.75;;;1.02;;
84589;SDS011;75075;48.816;8.740;2024-01-27T10:09:49;2.63;;;1.00;;
84589;SDS011;75075;48.816;8.740;2024-01-27T10:14:49;2.97;;;1.20;;
84589;SDS011;75075;48.816;8.740;2024-01-27T10:20:04;4.82;;;1.30;;
84589;SDS011;75075;48.816;8.740;2024-01-27T10:25:05;2.42;;;1.00;;
84589;SDS011;75075;48.816;8.740;2024-01-27T10:30:13;2.88;;;1.10;;
84589;SDS011;75075;48.816;8.740;2024-01-27T10:35:16;4.80;;;1.03;;
84589;SDS011;75075;48.816;8.740;2024-01-27T10:40:16;2.65;;;0.90;;
84589;SDS011;75075;48.816;8.740;2024-01-27T10:45:17;4.40;;;1.00;;
84589;SDS011;75075;48.816;8.740;2024-01-27T10:50:19;2.90;;;1.20;;
84589;SDS011;75075;48.816;8.740;2024-01-27T10:55:19;3.00;;;1.05;;
84589;SDS011;75075;48.816;8.740;2024-01-27T11:00:20;2.63;;;1.00;;
84589;SDS011;75075;48.816;8.740;2024-01-27T11:05:23;2.58;;;1.10;;
84589;SDS011;75075;48.816;8.740;2024-01-27T11:10:24;4.03;;;1.10;;
84589;SDS011;75075;48.816;8.740;2024-01-27T11:15:26;2.88;;;1.10;;
84589;SDS011;75075;48.816;8.740;2024-01-27T11:20:26;3.25;;;1.00;;
84589;SDS011;75075;48.816;8.740;2024-01-27T11:25:27;3.35;;;1.10;;
84589;SDS011;75075;48.816;8.740;2024-01-27T11:30:28;5.10;;;1.00;;
84589;SDS011;75075;48.816;8.740;2024-01-27T11:35:29;4.05;;;1.10;;
84589;SDS011;75075;48.816;8.740;2024-01-27T11:40:30;4.10;;;1.00;;
84589;SDS011;75075;48.816;8.740;2024-01-27T11:45:30;3.43;;;1.10;;
84589;SDS011;75075;48.816;8.740;2024-01-27T11:50:30;2.15;;;1.00;;
84589;SDS011;75075;48.816;8.740;2024-01-27T11:55:31;5.20;;;1.38;;
84589;SDS011;75075;48.816;8.740;2024-01-27T12:00:32;4.23;;;1.30;;
84589;SDS011;75075;48.816;8.740;2024-01-27T12:05:32;4.07;;;1.30;;
84589;SDS011;75075;48.816;8.740;2024-01-27T12:10:32;4.40;;;1.40;;
84589;SDS011;75075;48.816;8.740;2024-01-27T12:15:33;4.33;;;1.30;;
84589;SDS011;75075;48.816;8.740;2024-01-27T12:20:33;5.57;;;1.58;;
84589;SDS011;75075;48.816;8.740;2024-01-27T12:25:33;3.17;;;1.20;;
84589;SDS011;75075;48.816;8.740;2024-01-27T12:30:34;2.75;;;0.90;;
84589;SDS011;75075;48.816;8.740;2024-01-27T12:35:34;4.40;;;1.10;;
84589;SDS011;75075;48.816;8.740;2024-01-27T12:40:35;3.10;;;1.10;;
84589;SDS011;75075;48.816;8.740;2024-01-27T12:45:35;2.88;;;1.27;;
84589;SDS011;75075;48.816;8.740;2024-01-27T12:50:35;2.38;;;0.98;;
84589;SDS011;75075;48.816;8.740;2024-01-27T12:55:35;2.40;;;1.10;;
84589;SDS011;75075;48.816;8.740;2024-01-27T13:00:36;5.32;;;1.20;;
84589;SDS011;75075;48.816;8.740;2024-01-27T13:05:36;3.97;;;1.33;;
84589;SDS011;75075;48.816;8.740;2024-01-27T13:10:38;3.00;;;1.10;;
84589;SDS011;75075;48.816;8.740;2024-01-27T13:15:38;3.80;;;1.27;;
84589;SDS011;75075;48.816;8.740;2024-01-27T13:20:38;3.47;;;1.00;;
84589;SDS011;75075;48.816;8.740;2024-01-27T13:25:41;3.95;;;1.35;;
84589;SDS011;75075;48.816;8.740;2024-01-27T13:30:42;5.57;;;1.15;;
84589;SDS011;75075;48.816;8.740;2024-01-27T13:35:42;4.78;;;1.10;;
84589;SDS011;75075;48.816;8.740;2024-01-27T13:40:46;4.40;;;1.40;;
84589;SDS011;75075;48.816;8.740;2024-01-27T13:45:46;4.85;;;1.20;;
84589;SDS011;75075;48.816;8.740;2024-01-27T13:50:47;6.13;;;1.30;;
84589;SDS011;75075;48.816;8.740;2024-01-27T13:55:48;3.13;;;0.95;;
84589;SDS011;75075;48.816;8.740;2024-01-27T14:00:48;3.90;;;1.10;;
84589;SDS011;75075;48.816;8.740;2024-01-27T14:05:49;2.13;;;0.90;;
84589;SDS011;75075;48.816;8.740;2024-01-27T14:10:49;4.05;;;0.93;;
84589;SDS011;75075;48.816;8.740;2024-01-27T14:15:51;2.47;;;0.90;;
84589;SDS011;75075;48.816;8.740;2024-01-27T14:20:52;5.87;;;1.60;;
84589;SDS011;75075;48.816;8.740;2024-01-27T14:25:52;4.40;;;1.35;;
84589;SDS011;75075;48.816;8.740;2024-01-27T14:30:52;4.22;;;1.20;;
84589;SDS011;75075;48.816;8.740;2024-01-27T14:35:53;4.05;;;0.93;;
84589;SDS011;75075;48.816;8.740;2024-01-27T14:40:53;2.60;;;0.82;;
84589;SDS011;75075;48.816;8.740;2024-01-27T14:45:53;3.05;;;1.00;;
84589;SDS011;75075;48.816;8.740;2024-01-27T14:50:55;3.40;;;1.00;;
84589;SDS011;75075;48.816;8.740;2024-01-27T14:55:59;3.22;;;0.90;;
84589;SDS011;75075;48.816;8.740;2024-01-27T15:00:59;3.97;;;1.00;;
84589;SDS011;75075;48.816;8.740;2024-01-27T15:06:00;2.75;;;0.82;;
84589;SDS011;75075;48.816;8.740;2024-01-27T15:11:00;2.50;;;0.70;;
84589;SDS011;75075;48.816;8.740;2024-01-27T15:16:00;3.13;;;0.90;;
84589;SDS011;75075;48.816;8.740;2024-01-27T15:21:00;2.58;;;0.82;;
84589;SDS011;75075;48.816;8.740;2024-01-27T15:26:01;4.30;;;0.93;;
84589;SDS011;75075;48.816;8.740;2024-01-27T15:31:03;3.22;;;1.17;;
84589;SDS011;75075;48.816;8.740;2024-01-27T15:36:05;3.58;;;1.20;;
84589;SDS011;75075;48.816;8.740;2024-01-27T15:41:05;3.33;;;0.90;;
84589;SDS011;75075;48.816;8.740;2024-01-27T15:46:07;2.55;;;0.82;;
84589;SDS011;75075;48.816;8.740;2024-01-27T15:51:07;1.95;;;0.80;;
84589;SDS011;75075;48.816;8.740;2024-01-27T15:56:08;3.15;;;0.75;;
84589;SDS011;75075;48.816;8.740;2024-01-27T16:01:09;1.83;;;0.70;;
84589;SDS011;75075;48.816;8.740;2024-01-27T16:06:09;4.03;;;1.00;;
84589;SDS011;75075;48.816;8.740;2024-01-27T16:11:09;4.57;;;1.50;;
84589;SDS011;75075;48.816;8.740;2024-01-27T16:16:10;3.72;;;1.10;;
84589;SDS011;75075;48.816;8.740;2024-01-27T16:21:10;2.87;;;1.00;;
84589;SDS011;75075;48.816;8.740;2024-01-27T16:26:10;3.95;;;1.05;;
84589;SDS011;75075;48.816;8.740;2024-01-27T16:31:11;3.47;;;0.90;;
84589;SDS011;75075;48.816;8.740;2024-01-27T16:36:11;2.95;;;1.00;;
84589;SDS011;75075;48.816;8.740;2024-01-27T16:41:11;4.45;;;1.02;;
84589;SDS011;75075;48.816;8.740;2024-01-27T16:46:11;4.18;;;1.20;;
84589;SDS011;75075;48.816;8.740;2024-01-27T16:51:12;3.35;;;1.08;;
84589;SDS011;75075;48.816;8.740;2024-01-27T16:56:12;3.88;;;1.13;;
84589;SDS011;75075;48.816;8.740;2024-01-27T17:01:12;2.92;;;1.00;;
84589;SDS011;75075;48.816;8.740;2024-01-27T17:06:13;4.80;;;1.50;;
84589;SDS011;75075;48.816;8.740;2024-01-27T17:11:13;3.03;;;1.42;;
84589;SDS011;75075;48.816;8.740;2024-01-27T17:16:15;5.60;;;1.83;;
84589;SDS011;75075;48.816;8.740;2024-01-27T17:21:16;3.55;;;1.70;;
84589;SDS011;75075;48.816;8.740;2024-01-27T17:26:18;5.63;;;1.80;;
84589;SDS011;75075;48.816;8.740;2024-01-27T17:31:19;3.83;;;2.00;;
84589;SDS011;75075;48.816;8.740;2024-01-27T17:36:19;4.30;;;1.52;;
84589;SDS011;75075;48.816;8.740;2024-01-27T17:41:20;5.82;;;1.80;;
84589;SDS011;75075;48.816;8.740;2024-01-27T17:46:21;4.43;;;1.90;;
84589;SDS011;75075;48.816;8.740;2024-01-27T17:51:21;6.05;;;1.70;;
84589;SDS011;75075;48.816;8.740;2024-01-27T17:56:22;3.70;;;1.50;;
84589;SDS011;75075;48.816;8.740;2024-01-27T18:01:23;3.47;;;1.80;;
84589;SDS011;75075;48.816;8.740;2024-01-27T18:06:24;3.72;;;1.77;;
84589;SDS011;75075;48.816;8.740;2024-01-27T18:11:24;4.18;;;1.85;;
84589;SDS011;75075;48.816;8.740;2024-01-27T18:16:24;3.65;;;1.63;;
84589;SDS011;75075;48.816;8.740;2024-01-27T18:21:25;3.75;;;1.80;;
84589;SDS011;75075;48.816;8.740;2024-01-27T18:26:25;4.63;;;2.00;;
84589;SDS011;75075;48.816;8.740;2024-01-27T18:31:25;3.67;;;1.57;;
84589;SDS011;75075;48.816;8.740;2024-01-27T18:36:26;4.85;;;1.85;;
84589;SDS011;75075;48.816;8.740;2024-01-27T18:41:26;3.47;;;1.83;;
84589;SDS011;75075;48.816;8.740;2024-01-27T18:46:27;4.45;;;2.00;;
84589;SDS011;75075;48.816;8.740;2024-01-27T18:51:27;4.43;;;2.00;;
84589;SDS011;75075;48.816;8.740;2024-01-27T18:56:27;3.50;;;1.95;;
84589;SDS011;75075;48.816;8.740;2024-01-27T19:01:28;4.47;;;2.10;;
84589;SDS011;75075;48.816;8.740;2024-01-27T19:06:28;4.97;;;2.25;;
84589;SDS011;75075;48.816;8.740;2024-01-27T19:11:30;5.03;;;2.17;;
84589;SDS011;75075;48.816;8.740;2024-01-27T19:16:31;3.95;;;1.98;;
84589;SDS011;75075;48.816;8.740;2024-01-27T19:21:31;4.22;;;2.30;;
84589;SDS011;75075;48.816;8.740;2024-01-27T19:26:31;5.43;;;2.25;;
84589;SDS011;75075;48.816;8.740;2024-01-27T19:31:32;4.68;;;2.20;;
84589;SDS011;75075;48.816;8.740;2024-01-27T19:36:33;3.92;;;2.05;;
84589;SDS011;75075;48.816;8.740;2024-01-27T19:41:34;4.20;;;2.15;;
84589;SDS011;75075;48.816;8.740;2024-01-27T19:46:34;4.15;;;2.20;;
84589;SDS011;75075;48.816;8.740;2024-01-27T19:51:41;5.07;;;2.33;;
84589;SDS011;75075;48.816;8.740;2024-01-27T19:56:42;5.55;;;3.15;;
84589;SDS011;75075;48.816;8.740;2024-01-27T20:01:42;5.88;;;2.70;;
84589;SDS011;75075;48.816;8.740;2024-01-27T20:06:43;5.65;;;2.90;;
84589;SDS011;75075;48.816;8.740;2024-01-27T20:11:43;5.57;;;2.83;;
84589;SDS011;75075;48.816;8.740;2024-01-27T20:16:44;4.95;;;2.60;;
84589;SDS011;75075;48.816;8.740;2024-01-27T20:21:46;5.50;;;2.83;;
84589;SDS011;75075;48.816;8.740;2024-01-27T20:26:47;7.15;;;2.88;;
84589;SDS011;75075;48.816;8.740;2024-01-27T20:31:48;6.05;;;2.90;;
84589;SDS011;75075;48.816;8.740;2024-01-27T20:36:48;6.10;;;3.08;;
84589;SDS011;75075;48.816;8.740;2024-01-27T20:41:48;5.47;;;2.60;;
84589;SDS011;75075;48.816;8.740;2024-01-27T20:46:49;6.82;;;3.15;;
84589;SDS011;75075;48.816;8.740;2024-01-27T20:51:49;5.87;;;3.13;;
84589;SDS011;75075;48.816;8.740;2024-01-27T20:56:51;4.88;;;2.80;;
84589;SDS011;75075;48.816;8.740;2024-01-27T21:01:54;5.32;;;2.70;;
84589;SDS011;75075;48.816;8.740;2024-01-27T21:06:58;6.05;;;2.63;;
84589;SDS011;75075;48.816;8.740;2024-01-27T21:11:58;6.18;;;3.10;;
84589;SDS011;75075;48.816;8.740;2024-01-27T21:16:59;6.15;;;3.00;;
84589;SDS011;75075;48.816;8.740;2024-01-27T21:21:59;5.03;;;2.80;;
84589;SDS011;75075;48.816;8.740;2024-01-27T21:26:59;7.10;;;3.13;;
84589;SDS011;75075;48.816;8.740;2024-01-27T21:32:00;5.27;;;2.53;;
84589;SDS011;75075;48.816;8.740;2024-01-27T21:37:00;5.28;;;2.72;;
84589;SDS011;75075;48.816;8.740;2024-01-27T21:42:00;5.68;;;2.90;;
84589;SDS011;75075;48.816;8.740;2024-01-27T21:47:00;5.28;;;2.67;;
84589;SDS011;75075;48.816;8.740;2024-01-27T21:52:01;4.50;;;2.60;;
84589;SDS011;75075;48.816;8.740;2024-01-27T21:57:01;4.78;;;2.58;;
84589;SDS011;75075;48.816;8.740;2024-01-27T22:02:03;4.75;;;2.70;;
84589;SDS011;75075;48.816;8.740;2024-01-27T22:07:03;4.63;;;2.42;;
84589;SDS011;75075;48.816;8.740;2024-01-27T22:12:03;5.00;;;2.57;;
84589;SDS011;75075;48.816;8.740;2024-01-27T22:17:04;4.68;;;2.58;;
84589;SDS011;75075;48.816;8.740;2024-01-27T22:22:04;4.03;;;2.38;;
84589;SDS011;75075;48.816;8.740;2024-01-27T22:27:05;4.05;;;2.30;;
84589;SDS011;75075;48.816;8.740;2024-01-27T22:32:05;4.25;;;2.30;;
84589;SDS011;75075;48.816;8.740;2024-01-27T22:37:06;4.75;;;2.20;;
84589;SDS011;75075;48.816;8.740;2024-01-27T22:42:07;4.38;;;2.28;;
84589;SDS011;75075;48.816;8.740;2024-01-27T22:47:07;4.45;;;2.33;;
84589;SDS011;75075;48.816;8.740;2024-01-27T22:52:09;6.38;;;2.67;;
84589;SDS011;75075;48.816;8.740;2024-01-27T22:57:09;8.05;;;3.05;;
84589;SDS011;75075;48.816;8.740;2024-01-27T23:02:09;8.33;;;3.63;;
84589;SDS011;75075;48.816;8.740;2024-01-27T23:07:09;7.72;;;3.30;;
84589;SDS011;75075;48.816;8.740;2024-01-27T23:12:10;7.75;;;3.10;;
84589;SDS011;75075;48.816;8.740;2024-01-27T23:17:11;7.18;;;2.83;;
84589;SDS011;75075;48.816;8.740;2024-01-27T23:22:12;7.05;;;3.42;;
84589;SDS011;75075;48.816;8.740;2024-01-27T23:27:12;6.60;;;3.13;;
84589;SDS011;75075;48.816;8.740;2024-01-27T23:32:13;5.70;;;3.00;;
84589;SDS011;75075;48.816;8.740;2024-01-27T23:37:13;6.22;;;2.80;;
84589;SDS011;75075;48.816;8.740;2024-01-27T23:42:14;7.28;;;3.00;;
84589;SDS011;75075;48.816;8.740;2024-01-27T23:47:14;7.55;;;2.97;;
84589;SDS011;75075;48.816;8.740;2024-01-27T23:52:14;5.80;;;2.60;;
84589;SDS011;75075;48.816;8.740;2024-01-27T23:57:16;6.07;;;2.78;;
